Time;durP1;ratioP1;P1;durP2;ratioP2;P2;SDS_P1;SDS_P2;PMS_P1;PMS_P2;Temp;Humidity;BMP_temperature;BMP_pressure;BME280_temperature;BME280_humidity;BME280_pressure;Samples;Min_cycle;Max_cycle;Signal;HPM_P1;HPM_P2
2023/04/11 00:00:07;;;;;;;13.13;3.40;;;8.60;99.90;;;;;;5046323;28;20409;-80
2023/04/11 00:02:33;;;;;;;9.80;2.85;;;8.60;99.90;;;;;;5029230;28;20856;-78
2023/04/11 00:05:00;;;;;;;19.98;3.22;;;8.50;99.90;;;;;;5044921;28;20429;-78
2023/04/11 00:07:26;;;;;;;8.88;3.28;;;8.60;99.90;;;;;;5046301;28;21108;-78
2023/04/11 00:09:51;;;;;;;14.35;3.50;;;8.50;99.90;;;;;;5046044;28;20421;-78
2023/04/11 00:12:17;;;;;;;11.20;3.40;;;8.50;99.90;;;;;;5046406;28;20428;-77
2023/04/11 00:14:44;;;;;;;16.27;3.67;;;8.40;99.90;;;;;;5046039;28;20435;-77
2023/04/11 00:17:14;;;;;;;15.15;4.25;;;8.40;99.90;;;;;;5046307;28;20481;-78
2023/04/11 00:19:42;;;;;;;20.50;4.47;;;8.30;99.90;;;;;;5045478;28;20398;-77
2023/04/11 00:22:09;;;;;;;17.45;3.63;;;8.40;99.90;;;;;;5046401;28;20417;-76
2023/04/11 00:24:34;;;;;;;15.55;4.07;;;8.30;99.90;;;;;;5046236;28;20436;-77
2023/04/11 00:27:00;;;;;;;19.20;4.27;;;8.20;99.90;;;;;;5045837;28;20800;-76
2023/04/11 00:29:26;;;;;;;16.05;3.97;;;8.20;99.90;;;;;;5045972;28;20413;-77
2023/04/11 00:31:54;;;;;;;18.80;4.72;;;8.20;99.90;;;;;;5027795;28;20590;-78
2023/04/11 00:34:21;;;;;;;17.37;4.13;;;8.20;99.90;;;;;;5045202;28;20405;-78
2023/04/11 00:36:47;;;;;;;16.48;3.80;;;8.10;99.90;;;;;;5045803;28;20413;-77
2023/04/11 00:39:13;;;;;;;14.98;3.13;;;8.10;99.90;;;;;;5045873;28;20410;-78
2023/04/11 00:41:39;;;;;;;21.47;5.67;;;8.10;99.90;;;;;;5027733;28;20930;-78
2023/04/11 00:44:05;;;;;;;15.95;3.47;;;8.10;99.90;;;;;;5046391;28;20402;-79
2023/04/11 00:46:32;;;;;;;18.35;4.05;;;8.00;99.90;;;;;;5046458;28;20425;-78
2023/04/11 00:48:58;;;;;;;14.30;2.65;;;8.00;99.90;;;;;;5026593;28;20436;-77
2023/04/11 00:51:24;;;;;;;12.77;2.33;;;8.00;99.90;;;;;;5046204;28;20444;-77
2023/04/11 00:53:50;;;;;;;10.82;2.70;;;7.90;99.90;;;;;;5045345;28;20749;-76
2023/04/11 00:56:16;;;;;;;12.63;2.60;;;7.90;99.90;;;;;;5045571;28;20401;-77
2023/04/11 00:58:42;;;;;;;13.10;3.40;;;7.90;99.90;;;;;;5046551;28;20408;-77
2023/04/11 01:01:08;;;;;;;12.60;2.90;;;7.90;99.90;;;;;;5031044;28;20401;-78
2023/04/11 01:03:40;;;;;;;12.27;2.67;;;7.90;99.90;;;;;;5029545;28;20471;-78
2023/04/11 01:06:10;;;;;;;12.27;2.00;;;7.90;99.90;;;;;;5045886;28;20433;-78
2023/04/11 01:08:37;;;;;;;11.52;2.42;;;7.90;99.90;;;;;;5112416;22;20783;-77
2023/04/11 01:11:04;;;;;;;9.57;3.13;;;8.00;99.90;;;;;;5044218;28;20838;-78
2023/04/11 01:13:32;;;;;;;12.93;2.42;;;8.00;99.90;;;;;;5045034;28;20410;-78
2023/04/11 01:15:58;;;;;;;10.05;2.33;;;8.00;99.90;;;;;;5043897;28;20414;-78
2023/04/11 01:18:25;;;;;;;15.00;2.67;;;8.00;99.90;;;;;;5043749;28;20526;-76
2023/04/11 01:20:51;;;;;;;9.48;1.88;;;8.10;99.90;;;;;;5043508;28;20398;-77
2023/04/11 01:23:24;;;;;;;14.55;2.30;;;8.00;99.90;;;;;;5047657;28;20826;-76
2023/04/11 01:25:50;;;;;;;10.32;1.98;;;8.00;99.90;;;;;;5046514;28;20483;-75
2023/04/11 01:28:19;;;;;;;7.50;1.25;;;7.80;99.90;;;;;;5045279;28;20406;-78
2023/04/11 01:30:45;;;;;;;8.95;1.17;;;7.80;99.90;;;;;;5044253;28;20411;-78
2023/04/11 01:33:12;;;;;;;7.07;1.25;;;7.90;99.90;;;;;;5043848;28;20401;-78
2023/04/11 01:35:38;;;;;;;4.53;0.82;;;7.80;99.90;;;;;;5044597;28;20409;-78
2023/04/11 01:38:04;;;;;;;4.90;1.30;;;7.70;99.90;;;;;;5044850;28;20801;-79
2023/04/11 01:40:33;;;;;;;6.97;1.23;;;7.70;99.90;;;;;;5044547;28;20401;-78
2023/04/11 01:43:00;;;;;;;6.82;1.10;;;7.70;99.90;;;;;;5042699;28;20412;-77
2023/04/11 01:45:27;;;;;;;5.70;1.27;;;7.70;99.90;;;;;;5044087;28;20516;-78
2023/04/11 01:47:53;;;;;;;2.60;0.63;;;7.70;99.90;;;;;;5043282;28;20807;-77
2023/04/11 01:50:21;;;;;;;6.22;0.93;;;7.60;99.90;;;;;;5043544;28;20413;-79
2023/04/11 01:52:48;;;;;;;6.35;1.48;;;7.60;99.90;;;;;;5046726;28;20445;-76
2023/04/11 01:55:14;;;;;;;5.00;0.80;;;7.60;99.90;;;;;;5047608;28;20414;-77
2023/04/11 01:57:40;;;;;;;2.90;0.80;;;7.60;99.90;;;;;;5044638;28;20495;-77
2023/04/11 02:00:07;;;;;;;4.77;1.10;;;7.70;99.90;;;;;;5047941;28;20772;-78
2023/04/11 02:02:33;;;;;;;3.92;1.30;;;7.70;99.90;;;;;;5048215;28;20405;-77
2023/04/11 02:04:58;;;;;;;3.50;0.90;;;7.80;99.90;;;;;;5043756;28;20510;-76
2023/04/11 02:07:24;;;;;;;4.30;1.13;;;7.70;99.90;;;;;;5043897;28;20539;-77
2023/04/11 02:09:49;;;;;;;5.88;1.45;;;7.70;99.90;;;;;;5043828;28;20879;-77
2023/04/11 02:12:15;;;;;;;5.55;1.08;;;7.80;99.90;;;;;;5043245;28;20405;-78
2023/04/11 02:14:43;;;;;;;4.65;0.80;;;7.80;99.90;;;;;;5044010;28;20444;-78
2023/04/11 02:17:09;;;;;;;4.85;1.63;;;7.70;99.90;;;;;;5044779;28;20405;-77
2023/04/11 02:19:37;;;;;;;6.47;1.07;;;7.80;99.90;;;;;;5043712;28;20417;-78
2023/04/11 02:22:03;;;;;;;6.35;0.93;;;7.80;99.90;;;;;;5044781;28;20762;-77
2023/04/11 02:24:28;;;;;;;6.03;1.25;;;7.70;99.90;;;;;;5042351;28;20421;-78
2023/04/11 02:26:54;;;;;;;6.77;1.73;;;7.80;99.90;;;;;;5042424;28;20504;-79
2023/04/11 02:29:20;;;;;;;9.47;1.50;;;7.80;99.90;;;;;;5044533;28;20429;-77
2023/04/11 02:31:48;;;;;;;5.87;1.00;;;7.70;99.90;;;;;;5043692;28;20480;-77
2023/04/11 02:34:14;;;;;;;6.97;1.30;;;7.70;99.90;;;;;;5041966;28;20410;-77
2023/04/11 02:36:41;;;;;;;7.07;1.42;;;7.70;99.90;;;;;;5026458;28;20470;-76
2023/04/11 02:39:06;;;;;;;9.70;1.77;;;7.60;99.90;;;;;;5043933;28;20741;-77
2023/04/11 02:41:32;;;;;;;7.30;1.40;;;7.70;99.90;;;;;;5044262;28;20538;-77
2023/04/11 02:43:58;;;;;;;8.25;1.33;;;7.70;99.90;;;;;;5043790;28;20432;-77
2023/04/11 02:46:23;;;;;;;4.10;1.27;;;7.70;99.90;;;;;;5044209;28;20855;-77
2023/04/11 02:48:49;;;;;;;4.10;1.10;;;7.70;99.90;;;;;;5043451;28;20496;-77
2023/04/11 02:51:15;;;;;;;10.93;2.30;;;7.80;99.90;;;;;;5042415;28;20504;-77
2023/04/11 02:53:40;;;;;;;9.93;2.25;;;7.80;99.90;;;;;;5043676;28;20398;-78
2023/04/11 02:56:09;;;;;;;6.88;1.30;;;7.70;99.90;;;;;;5044120;28;20895;-77
2023/04/11 02:58:37;;;;;;;8.65;1.33;;;7.70;99.90;;;;;;5044723;28;20405;-76
2023/04/11 03:01:05;;;;;;;7.13;2.20;;;7.80;99.90;;;;;;5043284;28;20455;-77
2023/04/11 03:03:31;;;;;;;8.27;1.95;;;7.80;99.90;;;;;;5043035;28;20405;-78
2023/04/11 03:05:57;;;;;;;8.53;1.60;;;7.70;99.90;;;;;;5043492;28;20899;-77
2023/04/11 03:08:23;;;;;;;8.17;1.57;;;7.70;99.90;;;;;;5042450;28;20749;-76
2023/04/11 03:10:48;;;;;;;8.80;2.25;;;7.80;99.90;;;;;;5043972;28;20424;-76
2023/04/11 03:13:14;;;;;;;7.65;2.00;;;7.90;99.90;;;;;;5044236;28;20406;-77
2023/04/11 03:15:40;;;;;;;8.93;2.05;;;8.00;99.90;;;;;;5043720;28;20412;-77
2023/04/11 03:18:06;;;;;;;11.23;2.00;;;7.90;99.90;;;;;;5042911;28;21137;-77
2023/04/11 03:20:32;;;;;;;11.60;2.67;;;7.90;99.90;;;;;;5045903;28;20413;-77
2023/04/11 03:22:57;;;;;;;10.98;2.25;;;8.00;99.90;;;;;;5047043;28;20405;-78
2023/04/11 03:25:23;;;;;;;13.38;2.70;;;8.00;99.90;;;;;;5046247;28;20436;-76
2023/04/11 03:27:49;;;;;;;11.65;2.80;;;8.00;99.90;;;;;;5046112;28;20417;-76
2023/04/11 03:30:14;;;;;;;14.80;3.50;;;8.10;99.90;;;;;;5047486;28;20449;-78
2023/04/11 03:32:40;;;;;;;9.55;2.17;;;8.00;99.90;;;;;;5047264;28;20400;-77
2023/04/11 03:35:06;;;;;;;8.55;2.10;;;8.00;99.90;;;;;;5046293;28;20497;-79
2023/04/11 03:37:31;;;;;;;10.38;3.00;;;8.10;99.90;;;;;;5047475;28;20915;-77
2023/04/11 03:39:57;;;;;;;10.80;2.37;;;8.00;99.90;;;;;;5046485;28;20416;-78
2023/04/11 03:42:22;;;;;;;12.80;3.33;;;8.00;99.90;;;;;;5047507;28;20764;-77
2023/04/11 03:44:48;;;;;;;10.57;2.07;;;8.00;99.90;;;;;;5046839;28;20601;-78
2023/04/11 03:47:14;;;;;;;10.67;2.40;;;7.90;99.90;;;;;;5047123;28;20806;-76
2023/04/11 03:49:39;;;;;;;12.10;2.77;;;8.00;99.90;;;;;;5044513;28;20625;-77
2023/04/11 03:52:06;;;;;;;10.60;2.97;;;7.90;99.90;;;;;;5046791;28;20406;-77
2023/04/11 03:54:32;;;;;;;11.75;3.75;;;8.00;99.90;;;;;;5047378;28;20406;-77
2023/04/11 03:56:57;;;;;;;13.93;3.08;;;8.00;99.90;;;;;;5046790;28;20485;-77
2023/04/11 03:59:23;;;;;;;12.73;2.80;;;7.90;99.90;;;;;;5046580;28;20401;-76
2023/04/11 04:01:49;;;;;;;12.75;2.50;;;8.00;99.90;;;;;;5046634;28;20413;-77
2023/04/11 04:04:14;;;;;;;11.40;2.58;;;8.00;99.90;;;;;;5046050;28;20414;-76
2023/04/11 04:06:40;;;;;;;16.02;4.60;;;7.90;99.90;;;;;;5028637;28;20441;-77
2023/04/11 04:09:06;;;;;;;12.88;2.50;;;7.80;99.90;;;;;;5046501;28;20413;-79
2023/04/11 04:11:32;;;;;;;10.73;3.00;;;7.90;99.90;;;;;;5048486;28;20417;-78
2023/04/11 04:13:57;;;;;;;12.32;3.20;;;8.00;99.90;;;;;;5050124;28;20406;-77
2023/04/11 04:16:23;;;;;;;8.90;2.60;;;7.90;99.90;;;;;;5050104;28;20410;-78
2023/04/11 04:18:49;;;;;;;11.60;3.15;;;7.90;99.90;;;;;;5049271;28;20405;-77
2023/04/11 04:21:15;;;;;;;10.00;2.65;;;7.90;99.90;;;;;;5050718;28;20508;-77
2023/04/11 04:23:46;;;;;;;10.70;2.40;;;7.90;99.90;;;;;;5049141;28;20401;-77
2023/04/11 04:26:14;;;;;;;10.18;2.75;;;7.80;99.90;;;;;;5053184;28;20429;-75
2023/04/11 04:28:45;;;;;;;11.02;2.47;;;7.90;99.90;;;;;;5054732;28;20405;-76
2023/04/11 04:31:12;;;;;;;8.05;2.58;;;7.80;99.90;;;;;;5051725;28;20404;-78
2023/04/11 04:33:41;;;;;;;10.57;3.03;;;7.70;99.90;;;;;;5048152;28;20415;-76
2023/04/11 04:36:08;;;;;;;13.02;2.35;;;7.70;99.90;;;;;;5048429;28;20410;-77
2023/04/11 04:38:37;;;;;;;12.60;2.50;;;7.60;99.90;;;;;;5050615;28;20396;-78
2023/04/11 04:41:04;;;;;;;9.70;2.75;;;7.60;99.90;;;;;;5047847;28;20410;-77
2023/04/11 04:43:31;;;;;;;13.07;3.05;;;7.60;99.90;;;;;;5046401;28;20740;-78
2023/04/11 04:45:57;;;;;;;14.93;3.97;;;7.60;99.90;;;;;;5045423;28;20429;-78
2023/04/11 04:48:24;;;;;;;8.90;2.30;;;7.60;99.90;;;;;;5043707;28;20900;-77
2023/04/11 04:50:50;;;;;;;12.43;2.55;;;7.70;99.90;;;;;;5045826;28;20409;-77
2023/04/11 04:53:15;;;;;;;10.10;2.50;;;7.60;99.90;;;;;;5044747;28;20408;-77
2023/04/11 04:55:41;;;;;;;13.63;3.57;;;7.60;99.90;;;;;;5049441;28;20819;-76
2023/04/11 04:58:07;;;;;;;13.93;3.37;;;7.70;99.90;;;;;;5049694;28;20456;-77
2023/04/11 05:00:32;;;;;;;11.43;2.70;;;7.70;99.90;;;;;;5047205;28;20409;-77
2023/04/11 05:02:58;;;;;;;18.35;4.13;;;7.60;99.90;;;;;;5048652;28;20401;-78
2023/04/11 05:05:24;;;;;;;11.90;2.80;;;7.70;99.90;;;;;;5050495;28;20516;-78
2023/04/11 05:07:50;;;;;;;11.97;2.63;;;7.70;99.90;;;;;;5046010;28;20480;-77
2023/04/11 05:10:16;;;;;;;10.67;2.23;;;7.60;99.90;;;;;;5045418;28;20421;-79
2023/04/11 05:12:41;;;;;;;13.07;2.67;;;7.70;99.90;;;;;;5045862;28;20453;-77
2023/04/11 05:15:10;;;;;;;16.40;3.63;;;7.70;99.90;;;;;;5045839;28;20503;-76
2023/04/11 05:17:36;;;;;;;11.88;3.13;;;7.70;99.90;;;;;;5044161;28;20413;-77
2023/04/11 05:20:04;;;;;;;11.53;2.90;;;7.70;99.90;;;;;;5045613;28;20405;-76
2023/04/11 05:22:30;;;;;;;10.85;2.92;;;7.70;99.90;;;;;;5045679;28;20402;-76
2023/04/11 05:24:56;;;;;;;23.63;4.05;;;7.70;99.90;;;;;;5044522;28;20784;-76
2023/04/11 05:27:21;;;;;;;15.27;3.03;;;7.70;99.90;;;;;;5045240;28;20464;-77
2023/04/11 05:29:47;;;;;;;13.60;3.30;;;7.80;99.90;;;;;;5044496;28;20453;-76
2023/04/11 05:32:13;;;;;;;13.20;3.50;;;7.80;99.90;;;;;;5043507;28;20412;-77
2023/04/11 05:34:51;;;;;;;12.07;3.70;;;7.80;99.90;;;;;;5043566;28;20402;-76
2023/04/11 05:37:16;;;;;;;14.55;3.42;;;7.90;99.90;;;;;;5044506;28;20421;-77
2023/04/11 05:39:42;;;;;;;12.23;3.27;;;7.80;99.90;;;;;;5044680;28;20779;-78
2023/04/11 05:42:08;;;;;;;14.73;2.50;;;7.80;99.90;;;;;;5044372;28;20402;-77
2023/04/11 05:44:33;;;;;;;10.38;2.47;;;7.80;99.90;;;;;;5044830;28;20421;-77
2023/04/11 05:46:59;;;;;;;12.02;2.90;;;7.80;99.90;;;;;;5044608;28;20409;-77
2023/04/11 05:49:25;;;;;;;12.38;2.75;;;7.80;99.90;;;;;;5043930;28;20504;-77
2023/04/11 05:51:50;;;;;;;13.18;2.78;;;7.90;99.90;;;;;;5044743;28;20409;-77
2023/04/11 05:54:33;;;;;;;9.82;2.40;;;7.80;99.90;;;;;;5026799;28;20726;-77
2023/04/11 05:56:58;;;;;;;15.43;3.47;;;7.90;99.90;;;;;;5044041;28;21017;-77
2023/04/11 05:59:24;;;;;;;11.67;3.27;;;7.90;99.90;;;;;;5044474;28;20669;-77
2023/04/11 06:01:50;;;;;;;13.60;3.90;;;7.90;99.90;;;;;;5043849;28;20510;-76
2023/04/11 06:04:16;;;;;;;15.60;2.80;;;8.00;99.90;;;;;;5043034;28;20409;-77
2023/04/11 06:06:42;;;;;;;15.27;2.70;;;8.00;99.90;;;;;;5044024;28;20498;-77
2023/04/11 06:09:09;;;;;;;20.40;3.95;;;7.90;99.90;;;;;;5044139;28;20872;-76
2023/04/11 06:11:35;;;;;;;15.53;3.80;;;8.00;99.90;;;;;;5044168;28;21010;-76
2023/04/11 06:14:01;;;;;;;13.17;2.70;;;7.90;99.90;;;;;;5043128;28;20393;-77
2023/04/11 06:16:26;;;;;;;16.00;4.43;;;7.90;99.90;;;;;;5044245;28;20459;-76
2023/04/11 06:18:52;;;;;;;12.17;3.47;;;8.00;99.90;;;;;;5041670;28;20887;-76
2023/04/11 06:21:18;;;;;;;12.50;2.77;;;7.90;99.90;;;;;;5044477;28;20416;-76
2023/04/11 06:23:43;;;;;;;12.57;2.80;;;7.90;99.90;;;;;;5044175;28;20409;-76
2023/04/11 06:26:09;;;;;;;13.10;3.43;;;8.00;99.90;;;;;;5044368;28;20433;-76
2023/04/11 06:28:35;;;;;;;17.67;4.07;;;8.10;99.90;;;;;;5045035;28;20397;-78
2023/04/11 06:31:00;;;;;;;17.33;3.10;;;8.00;99.90;;;;;;5044860;28;20978;-76
2023/04/11 06:33:26;;;;;;;17.43;3.53;;;8.10;99.90;;;;;;5043189;28;20405;-76
2023/04/11 06:35:52;;;;;;;19.10;4.43;;;8.10;99.90;;;;;;5043772;28;20661;-76
2023/04/11 06:38:17;;;;;;;12.82;3.22;;;8.10;99.90;;;;;;5044484;28;20864;-75
2023/04/11 06:40:43;;;;;;;14.88;3.58;;;8.00;99.90;;;;;;5042671;28;20412;-76
2023/04/11 06:43:09;;;;;;;15.27;4.20;;;8.00;99.90;;;;;;5043965;28;20443;-75
2023/04/11 06:45:34;;;;;;;16.45;3.30;;;8.00;99.90;;;;;;5044590;28;20562;-75
2023/04/11 06:48:00;;;;;;;19.45;3.65;;;8.10;99.90;;;;;;5041893;28;20413;-76
2023/04/11 06:50:26;;;;;;;11.53;3.23;;;8.10;99.90;;;;;;5044073;28;20771;-75
2023/04/11 06:52:51;;;;;;;13.13;3.33;;;8.10;99.90;;;;;;5044410;28;20804;-75
2023/04/11 06:55:17;;;;;;;21.30;4.00;;;8.20;99.90;;;;;;5045886;28;20412;-76
2023/04/11 06:57:43;;;;;;;13.37;3.07;;;8.20;99.90;;;;;;5047282;28;20476;-76
2023/04/11 07:00:11;;;;;;;12.77;3.40;;;8.20;99.90;;;;;;5046796;28;20489;-77
2023/04/11 07:02:37;;;;;;;20.60;4.13;;;8.30;99.90;;;;;;5045365;28;20492;-76
2023/04/11 07:05:04;;;;;;;13.63;3.13;;;8.40;99.90;;;;;;5048092;28;20425;-75
2023/04/11 07:07:30;;;;;;;16.40;4.00;;;8.80;99.90;;;;;;5047783;28;20443;-76
2023/04/11 07:09:56;;;;;;;14.20;4.30;;;9.00;99.90;;;;;;5047318;28;20492;-77
2023/04/11 07:12:22;;;;;;;15.85;3.50;;;8.90;99.90;;;;;;5047501;28;20433;-76
2023/04/11 07:14:47;;;;;;;21.42;3.45;;;8.80;99.90;;;;;;5047325;28;20735;-76
2023/04/11 07:17:13;;;;;;;16.15;4.10;;;8.90;99.90;;;;;;5046856;28;20398;-76
2023/04/11 07:19:39;;;;;;;14.65;3.30;;;8.90;99.90;;;;;;5046957;28;20409;-77
2023/04/11 07:22:05;;;;;;;18.67;4.38;;;9.00;99.90;;;;;;5047344;28;20795;-78
2023/04/11 07:24:30;;;;;;;20.30;3.95;;;8.90;99.90;;;;;;5047412;28;20417;-77
2023/04/11 07:27:00;;;;;;;18.77;3.75;;;8.90;99.90;;;;;;5046907;28;20416;-76
2023/04/11 07:29:27;;;;;;;15.10;3.28;;;9.10;99.90;;;;;;5048872;28;20410;-76
2023/04/11 07:31:53;;;;;;;14.30;2.85;;;9.00;99.90;;;;;;5049110;28;20871;-75
2023/04/11 07:34:19;;;;;;;13.15;2.72;;;8.90;99.90;;;;;;5046831;28;20485;-78
2023/04/11 07:36:45;;;;;;;16.90;4.25;;;8.80;99.90;;;;;;5047569;28;20409;-77
2023/04/11 07:39:13;;;;;;;18.40;3.07;;;9.00;99.90;;;;;;5047986;28;20397;-77
2023/04/11 07:41:38;;;;;;;15.13;3.50;;;8.70;99.90;;;;;;5046848;28;20414;-76
2023/04/11 07:44:08;;;;;;;11.70;2.80;;;8.90;99.90;;;;;;5047702;28;20417;-77
2023/04/11 07:46:34;;;;;;;14.50;3.90;;;8.90;99.90;;;;;;5047587;28;20449;-77
2023/04/11 07:49:00;;;;;;;13.73;2.50;;;8.80;99.90;;;;;;5045559;28;20397;-76
2023/04/11 07:51:26;;;;;;;9.55;2.58;;;8.90;99.90;;;;;;5045616;28;20425;-76
2023/04/11 07:53:53;;;;;;;14.50;3.30;;;8.80;99.90;;;;;;5045685;28;20439;-77
2023/04/11 07:56:18;;;;;;;11.85;2.63;;;8.80;99.90;;;;;;5046555;28;20443;-77
2023/04/11 07:58:44;;;;;;;14.10;4.38;;;8.80;99.90;;;;;;5046590;28;20416;-77
2023/04/11 08:01:24;;;;;;;10.80;2.80;;;8.90;99.90;;;;;;5047778;28;20405;-77
2023/04/11 08:03:54;;;;;;;14.00;2.97;;;9.00;99.90;;;;;;5045553;28;20974;-76
2023/04/11 08:06:19;;;;;;;9.95;2.40;;;9.10;99.90;;;;;;5046503;28;20429;-76
2023/04/11 08:08:46;;;;;;;10.97;2.77;;;9.20;99.90;;;;;;5047825;28;20467;-77
2023/04/11 08:11:13;;;;;;;12.73;2.38;;;9.30;99.90;;;;;;5046541;28;20413;-76
2023/04/11 08:13:38;;;;;;;13.77;3.38;;;9.30;99.90;;;;;;5046376;28;20409;-77
2023/04/11 08:16:09;;;;;;;13.50;2.40;;;9.20;99.90;;;;;;5046659;28;20417;-76
2023/04/11 08:18:36;;;;;;;13.90;3.00;;;9.10;99.90;;;;;;5045866;28;20822;-77
2023/04/11 08:21:02;;;;;;;8.63;2.30;;;9.30;99.90;;;;;;5046711;28;20771;-77
2023/04/11 08:23:28;;;;;;;11.52;2.22;;;9.30;99.90;;;;;;5046111;28;20402;-76
2023/04/11 08:25:55;;;;;;;14.02;3.20;;;9.10;99.90;;;;;;5046022;28;20447;-77
2023/04/11 08:28:21;;;;;;;11.23;2.53;;;9.20;99.90;;;;;;5046320;28;20397;-76
2023/04/11 08:30:47;;;;;;;12.97;2.87;;;9.30;99.90;;;;;;5045555;28;21071;-76
2023/04/11 08:33:14;;;;;;;12.02;2.35;;;9.30;99.90;;;;;;5045053;28;20404;-76
2023/04/11 08:35:43;;;;;;;9.57;2.35;;;9.30;99.90;;;;;;5045629;28;20690;-76
2023/04/11 08:38:09;;;;;;;15.00;3.20;;;9.60;99.90;;;;;;5046016;28;20479;-76
2023/04/11 08:40:35;;;;;;;10.52;2.03;;;9.90;99.90;;;;;;5046266;28;20487;-75
2023/04/11 08:43:01;;;;;;;7.83;2.00;;;10.30;99.90;;;;;;5044918;28;20747;-76
2023/04/11 08:45:27;;;;;;;11.60;2.70;;;10.10;99.90;;;;;;5045654;28;21059;-75
2023/04/11 08:47:52;;;;;;;11.57;2.90;;;9.80;99.90;;;;;;5044379;28;20410;-74
2023/04/11 08:50:18;;;;;;;12.37;2.20;;;9.60;99.90;;;;;;5044166;28;20417;-75
2023/04/11 08:52:47;;;;;;;10.20;2.13;;;9.60;99.90;;;;;;5045653;28;20456;-75
2023/04/11 08:55:13;;;;;;;7.85;2.28;;;10.10;99.90;;;;;;5045381;28;20401;-76
2023/04/11 08:57:38;;;;;;;9.68;2.45;;;9.50;99.90;;;;;;5045060;28;20416;-77
2023/04/11 09:00:17;;;;;;;11.85;2.75;;;9.00;99.90;;;;;;5045809;28;20462;-76
2023/04/11 09:03:04;;;;;;;12.07;2.75;;;8.80;99.90;;;;;;5044401;28;20424;-76
2023/04/11 09:05:42;;;;;;;12.05;2.22;;;8.80;99.90;;;;;;5044068;28;21168;-76
2023/04/11 09:08:15;;;;;;;12.60;3.33;;;8.70;99.90;;;;;;5045121;28;20413;-76
2023/04/11 09:10:46;;;;;;;9.87;2.80;;;9.20;99.90;;;;;;5043941;28;20498;-76
2023/04/11 09:13:26;;;;;;;13.18;2.67;;;9.10;99.90;;;;;;5044919;28;20464;-76
2023/04/11 09:16:11;;;;;;;17.25;3.08;;;9.10;99.90;;;;;;5043544;28;20405;-76
2023/04/11 09:18:42;;;;;;;11.00;3.35;;;9.20;99.90;;;;;;5042645;28;20409;-75
2023/04/11 09:21:10;;;;;;;13.98;3.33;;;9.20;99.90;;;;;;5044911;28;20455;-76
2023/04/11 09:23:36;;;;;;;18.98;3.78;;;9.30;99.90;;;;;;5044557;28;20433;-76
2023/04/11 09:26:05;;;;;;;17.80;3.13;;;9.60;99.90;;;;;;5043874;28;20425;-77
2023/04/11 09:28:51;;;;;;;16.73;2.85;;;9.70;99.90;;;;;;5045412;28;20600;-75
2023/04/11 09:31:17;;;;;;;13.10;2.80;;;9.70;99.90;;;;;;5045009;28;20401;-76
2023/04/11 09:33:53;;;;;;;17.33;4.67;;;10.00;99.90;;;;;;5043866;28;20832;-76
2023/04/11 09:36:24;;;;;;;15.63;2.47;;;9.50;99.90;;;;;;5043487;28;20402;-75
2023/04/11 09:38:52;;;;;;;10.02;2.63;;;9.30;99.90;;;;;;5044480;28;20440;-76
2023/04/11 09:41:32;;;;;;;15.93;3.38;;;9.30;99.90;;;;;;5045028;28;20747;-76
2023/04/11 09:43:59;;;;;;;18.13;3.80;;;9.80;99.90;;;;;;5043063;28;20410;-76
2023/04/11 09:46:24;;;;;;;13.40;3.50;;;9.80;99.90;;;;;;5044614;28;20527;-77
2023/04/11 09:48:56;;;;;;;17.60;3.33;;;9.70;99.90;;;;;;5042383;28;21574;-76
2023/04/11 09:51:22;;;;;;;8.50;2.60;;;9.90;99.90;;;;;;5044783;28;20401;-76
2023/04/11 09:53:48;;;;;;;14.48;3.80;;;10.00;99.90;;;;;;5042366;28;20445;-76
2023/04/11 09:56:13;;;;;;;19.08;4.72;;;10.50;99.90;;;;;;5043992;28;20441;-76
2023/04/11 09:58:40;;;;;;;15.13;3.25;;;10.60;99.90;;;;;;5043993;28;21207;-76
2023/04/11 10:01:09;;;;;;;12.95;3.08;;;10.70;99.90;;;;;;5044584;28;20880;-77
2023/04/11 10:03:38;;;;;;;14.07;3.30;;;10.70;99.90;;;;;;5042472;28;20476;-75
2023/04/11 10:06:21;;;;;;;14.52;2.63;;;10.30;99.90;;;;;;5044423;28;20433;-76
2023/04/11 10:08:49;;;;;;;14.68;2.97;;;10.30;99.90;;;;;;5043894;28;20459;-76
2023/04/11 10:11:19;;;;;;;6.03;2.15;;;9.90;99.90;;;;;;5043155;28;20405;-77
2023/04/11 10:13:45;;;;;;;6.18;1.50;;;9.30;99.90;;;;;;5045099;28;20492;-77
2023/04/11 10:16:17;;;;;;;4.28;1.30;;;8.20;99.90;;;;;;5043536;28;20479;-77
2023/04/11 10:18:52;;;;;;;7.28;1.80;;;8.20;99.90;;;;;;5043036;28;21126;-76
2023/04/11 10:21:29;;;;;;;6.70;1.48;;;8.10;99.90;;;;;;5044206;28;20492;-76
2023/04/11 10:24:15;;;;;;;4.57;1.15;;;8.00;99.90;;;;;;5043905;28;20409;-76
2023/04/11 10:26:47;;;;;;;8.90;1.55;;;8.10;99.90;;;;;;5044078;28;20428;-76
2023/04/11 10:29:35;;;;;;;7.55;2.00;;;8.10;99.90;;;;;;5045398;28;20575;-76
2023/04/11 10:32:20;;;;;;;9.65;2.40;;;8.50;99.90;;;;;;5048888;28;20413;-76
2023/04/11 10:34:52;;;;;;;12.07;3.00;;;8.90;99.90;;;;;;5049148;28;20406;-76
2023/04/11 10:37:29;;;;;;;7.63;1.93;;;8.90;99.90;;;;;;5048921;28;20401;-78
2023/04/11 10:40:00;;;;;;;9.38;2.33;;;9.10;99.90;;;;;;5047962;28;20476;-75
2023/04/11 10:42:43;;;;;;;9.20;2.05;;;9.00;99.90;;;;;;5048251;28;20546;-75
2023/04/11 10:45:23;;;;;;;9.60;1.77;;;8.60;99.90;;;;;;5048150;28;20425;-77
2023/04/11 10:47:55;;;;;;;11.07;2.65;;;8.10;99.90;;;;;;5046507;28;20417;-76
2023/04/11 10:50:36;;;;;;;11.25;2.42;;;8.00;99.90;;;;;;5047568;28;20393;-77
2023/04/11 10:53:05;;;;;;;9.40;2.50;;;7.40;99.90;;;;;;5047120;28;20421;-77
2023/04/11 10:55:45;;;;;;;9.43;2.15;;;7.50;99.90;;;;;;5048048;28;20389;-76
2023/04/11 10:58:18;;;;;;;12.68;2.33;;;7.60;99.90;;;;;;5047785;28;20416;-76
2023/04/11 11:00:50;;;;;;;10.50;1.80;;;7.60;99.90;;;;;;5049825;28;20393;-75
2023/04/11 11:03:24;;;;;;;7.38;1.52;;;7.10;99.90;;;;;;5050286;28;20439;-75
2023/04/11 11:06:04;;;;;;;8.68;2.40;;;7.20;99.90;;;;;;5047087;28;20893;-75
2023/04/11 11:08:33;;;;;;;7.70;2.00;;;7.30;99.90;;;;;;5052839;28;20895;-77
2023/04/11 11:11:05;;;;;;;8.33;1.80;;;7.60;99.90;;;;;;5052758;28;20585;-75
2023/04/11 11:13:42;;;;;;;10.18;2.75;;;7.90;99.90;;;;;;5046147;28;20912;-75
2023/04/11 11:16:12;;;;;;;15.63;3.97;;;7.80;99.90;;;;;;5047604;28;20410;-76
2023/04/11 11:18:38;;;;;;;15.13;3.15;;;7.80;99.90;;;;;;5046285;28;20449;-76
2023/04/11 11:21:04;;;;;;;12.60;3.50;;;7.80;99.90;;;;;;5047677;28;20436;-76
2023/04/11 11:23:30;;;;;;;11.15;3.83;;;7.60;99.90;;;;;;5047250;28;20406;-75
2023/04/11 11:25:57;;;;;;;12.52;1.92;;;7.80;99.90;;;;;;5046961;28;20773;-76
2023/04/11 11:28:23;;;;;;;9.40;2.28;;;7.70;99.90;;;;;;5046986;28;20799;-76
2023/04/11 11:30:54;;;;;;;7.28;1.85;;;7.60;99.90;;;;;;5045712;28;20415;-77
2023/04/11 11:33:25;;;;;;;11.82;3.72;;;8.00;99.90;;;;;;5046981;28;20973;-76
2023/04/11 11:36:03;;;;;;;11.32;2.40;;;8.20;99.90;;;;;;5047140;28;20401;-77
2023/04/11 11:38:29;;;;;;;10.75;2.30;;;8.40;99.90;;;;;;5046032;28;20444;-76
2023/04/11 11:40:56;;;;;;;13.98;3.67;;;8.50;99.90;;;;;;5046080;28;21131;-77
2023/04/11 11:43:24;;;;;;;14.65;2.70;;;8.80;99.90;;;;;;5047032;28;20402;-77
2023/04/11 11:46:22;;;;;;;12.18;3.10;;;8.80;99.90;;;;;;5047185;28;20426;-77
2023/04/11 11:48:57;;;;;;;11.57;2.40;;;8.90;99.90;;;;;;5001756;28;20956;-76
2023/04/11 11:51:23;;;;;;;15.23;3.28;;;9.00;99.90;;;;;;5046970;28;20397;-76
2023/04/11 11:54:07;;;;;;;14.68;3.42;;;9.20;99.90;;;;;;5046603;28;20773;-77
2023/04/11 11:56:33;;;;;;;16.02;3.25;;;9.70;99.90;;;;;;5047119;28;20467;-76
2023/04/11 11:58:59;;;;;;;22.13;4.45;;;10.00;99.90;;;;;;5046193;28;20410;-77
2023/04/11 12:01:25;;;;;;;14.80;3.93;;;10.20;99.90;;;;;;5044417;28;20399;-75
2023/04/11 12:03:52;;;;;;;17.13;3.40;;;10.10;99.90;;;;;;5045929;28;20652;-77
2023/04/11 12:06:19;;;;;;;14.82;3.42;;;9.70;99.90;;;;;;5045986;28;20438;-77
2023/04/11 12:08:50;;;;;;;15.38;3.35;;;9.60;99.90;;;;;;5045998;28;20764;-77
2023/04/11 12:11:17;;;;;;;12.00;2.95;;;9.50;99.90;;;;;;5046489;28;20757;-77
2023/04/11 12:13:44;;;;;;;17.13;3.85;;;9.40;99.90;;;;;;5046197;28;20593;-77
2023/04/11 12:16:10;;;;;;;12.93;3.30;;;9.50;99.90;;;;;;5046936;28;20409;-78
2023/04/11 12:18:40;;;;;;;13.85;2.00;;;9.50;99.90;;;;;;5045502;28;20808;-77
2023/04/11 12:21:06;;;;;;;12.47;3.07;;;10.00;99.90;;;;;;5046738;28;20484;-77
2023/04/11 12:23:32;;;;;;;10.87;2.37;;;9.80;99.90;;;;;;5046421;28;20939;-77
2023/04/11 12:25:58;;;;;;;14.77;2.90;;;9.70;99.90;;;;;;5046035;28;20520;-77
2023/04/11 12:28:23;;;;;;;13.63;3.23;;;9.60;99.90;;;;;;5046487;28;20440;-77
2023/04/11 12:30:49;;;;;;;16.97;3.43;;;9.60;99.90;;;;;;5046155;28;20953;-77
2023/04/11 12:33:15;;;;;;;12.50;2.75;;;9.90;99.90;;;;;;5045090;28;20802;-77
2023/04/11 12:35:40;;;;;;;15.82;3.67;;;10.20;99.90;;;;;;5044579;28;20410;-77
2023/04/11 12:38:06;;;;;;;14.60;3.10;;;10.30;99.90;;;;;;5044819;28;20752;-77
2023/04/11 12:40:32;;;;;;;15.70;3.00;;;10.60;99.90;;;;;;5044609;28;20422;-77
2023/04/11 12:42:58;;;;;;;10.17;2.17;;;10.90;99.90;;;;;;5044366;28;20425;-77
2023/04/11 12:45:24;;;;;;;14.85;2.90;;;11.20;99.90;;;;;;5044666;28;20446;-76
2023/04/11 12:47:50;;;;;;;10.82;2.40;;;10.80;99.90;;;;;;5045997;28;20458;-77
2023/04/11 12:50:16;;;;;;;10.50;3.10;;;10.50;99.90;;;;;;5045203;28;20421;-77